sensor_id;sensor_type;location;lat;lon;timestamp;P1;durP1;ratioP1;P2;durP2;ratioP2
5801;SDS011;2927;49.366;8.530;2024-02-21T00:00:12;9.47;;;4.30;;
5801;SDS011;2927;49.366;8.530;2024-02-21T00:02:39;14.30;;;3.60;;
5801;SDS011;2927;49.366;8.530;2024-02-21T00:05:05;10.60;;;4.60;;
5801;SDS011;2927;49.366;8.530;2024-02-21T00:07:30;18.50;;;3.80;;
5801;SDS011;2927;49.366;8.530;2024-02-21T00:09:56;12.23;;;4.80;;
5801;SDS011;2927;49.366;8.530;2024-02-21T00:12:21;13.40;;;4.33;;
5801;SDS011;2927;49.366;8.530;2024-02-21T00:14:47;9.93;;;3.20;;
5801;SDS011;2927;49.366;8.530;2024-02-21T00:17:12;12.20;;;4.10;;
5801;SDS011;2927;49.366;8.530;2024-02-21T00:19:38;18.00;;;4.57;;
5801;SDS011;2927;49.366;8.530;2024-02-21T00:22:04;15.27;;;5.13;;
5801;SDS011;2927;49.366;8.530;2024-02-21T00:24:29;14.20;;;4.17;;
5801;SDS011;2927;49.366;8.530;2024-02-21T00:26:55;8.10;;;3.73;;
5801;SDS011;2927;49.366;8.530;2024-02-21T00:29:20;8.40;;;3.80;;
5801;SDS011;2927;49.366;8.530;2024-02-21T00:31:46;14.53;;;5.03;;
5801;SDS011;2927;49.366;8.530;2024-02-21T00:34:13;10.37;;;3.77;;
5801;SDS011;2927;49.366;8.530;2024-02-21T00:36:38;12.73;;;4.40;;
5801;SDS011;2927;49.366;8.530;2024-02-21T00:39:04;14.53;;;3.97;;
5801;SDS011;2927;49.366;8.530;2024-02-21T00:41:29;6.87;;;3.63;;
5801;SDS011;2927;49.366;8.530;2024-02-21T00:43:55;11.77;;;3.63;;
5801;SDS011;2927;49.366;8.530;2024-02-21T00:46:20;8.90;;;3.23;;
5801;SDS011;2927;49.366;8.530;2024-02-21T00:48:46;14.90;;;3.87;;
5801;SDS011;2927;49.366;8.530;2024-02-21T00:51:12;6.80;;;2.60;;
5801;SDS011;2927;49.366;8.530;2024-02-21T00:53:38;11.63;;;4.50;;
5801;SDS011;2927;49.366;8.530;2024-02-21T00:56:06;11.97;;;3.33;;
5801;SDS011;2927;49.366;8.530;2024-02-21T00:58:32;9.03;;;3.50;;
5801;SDS011;2927;49.366;8.530;2024-02-21T01:00:58;7.50;;;3.37;;
5801;SDS011;2927;49.366;8.530;2024-02-21T01:03:25;14.93;;;3.00;;
5801;SDS011;2927;49.366;8.530;2024-02-21T01:05:51;7.20;;;3.13;;
5801;SDS011;2927;49.366;8.530;2024-02-21T01:08:17;15.40;;;3.63;;
5801;SDS011;2927;49.366;8.530;2024-02-21T01:10:42;12.80;;;4.13;;
5801;SDS011;2927;49.366;8.530;2024-02-21T01:13:08;15.87;;;4.17;;
5801;SDS011;2927;49.366;8.530;2024-02-21T01:15:33;7.73;;;2.87;;
5801;SDS011;2927;49.366;8.530;2024-02-21T01:17:59;9.40;;;4.00;;
5801;SDS011;2927;49.366;8.530;2024-02-21T01:20:24;9.03;;;3.17;;
5801;SDS011;2927;49.366;8.530;2024-02-21T01:22:50;9.83;;;3.53;;
5801;SDS011;2927;49.366;8.530;2024-02-21T01:25:16;13.97;;;3.13;;
5801;SDS011;2927;49.366;8.530;2024-02-21T01:27:41;12.30;;;3.10;;
5801;SDS011;2927;49.366;8.530;2024-02-21T01:30:07;7.83;;;2.90;;
5801;SDS011;2927;49.366;8.530;2024-02-21T01:32:33;8.00;;;3.90;;
5801;SDS011;2927;49.366;8.530;2024-02-21T01:34:58;7.30;;;3.37;;
5801;SDS011;2927;49.366;8.530;2024-02-21T01:37:24;9.50;;;3.00;;
5801;SDS011;2927;49.366;8.530;2024-02-21T01:39:50;11.30;;;3.90;;
5801;SDS011;2927;49.366;8.530;2024-02-21T01:42:15;11.10;;;3.77;;
5801;SDS011;2927;49.366;8.530;2024-02-21T01:44:41;9.70;;;3.57;;
5801;SDS011;2927;49.366;8.530;2024-02-21T01:47:07;14.60;;;4.60;;
5801;SDS011;2927;49.366;8.530;2024-02-21T01:49:33;7.20;;;3.30;;
5801;SDS011;2927;49.366;8.530;2024-02-21T01:51:58;8.60;;;3.03;;
5801;SDS011;2927;49.366;8.530;2024-02-21T01:54:25;13.13;;;3.60;;
5801;SDS011;2927;49.366;8.530;2024-02-21T01:56:53;8.00;;;4.10;;
5801;SDS011;2927;49.366;8.530;2024-02-21T01:59:19;8.00;;;3.03;;
5801;SDS011;2927;49.366;8.530;2024-02-21T02:01:47;13.57;;;6.03;;
5801;SDS011;2927;49.366;8.530;2024-02-21T02:04:13;9.93;;;3.80;;
5801;SDS011;2927;49.366;8.530;2024-02-21T02:06:39;11.57;;;3.43;;
5801;SDS011;2927;49.366;8.530;2024-02-21T02:09:06;17.60;;;4.27;;
5801;SDS011;2927;49.366;8.530;2024-02-21T02:11:32;6.83;;;3.90;;
5801;SDS011;2927;49.366;8.530;2024-02-21T02:13:58;15.50;;;3.70;;
5801;SDS011;2927;49.366;8.530;2024-02-21T02:16:23;14.60;;;3.80;;
5801;SDS011;2927;49.366;8.530;2024-02-21T02:18:49;8.30;;;3.60;;
5801;SDS011;2927;49.366;8.530;2024-02-21T02:21:30;11.37;;;3.77;;
5801;SDS011;2927;49.366;8.530;2024-02-21T02:24:03;9.73;;;4.17;;
5801;SDS011;2927;49.366;8.530;2024-02-21T02:26:29;11.93;;;4.43;;
5801;SDS011;2927;49.366;8.530;2024-02-21T02:28:55;12.40;;;4.13;;
5801;SDS011;2927;49.366;8.530;2024-02-21T02:31:20;7.63;;;3.00;;
5801;SDS011;2927;49.366;8.530;2024-02-21T02:33:46;10.50;;;4.10;;
5801;SDS011;2927;49.366;8.530;2024-02-21T02:36:13;8.30;;;3.50;;
5801;SDS011;2927;49.366;8.530;2024-02-21T02:38:38;6.37;;;3.57;;
5801;SDS011;2927;49.366;8.530;2024-02-21T02:41:04;8.40;;;3.53;;
5801;SDS011;2927;49.366;8.530;2024-02-21T02:43:29;13.17;;;4.10;;
5801;SDS011;2927;49.366;8.530;2024-02-21T02:45:56;5.60;;;3.40;;
5801;SDS011;2927;49.366;8.530;2024-02-21T02:48:21;14.10;;;6.40;;
5801;SDS011;2927;49.366;8.530;2024-02-21T02:50:47;16.87;;;3.83;;
5801;SDS011;2927;49.366;8.530;2024-02-21T02:53:14;8.93;;;3.70;;
5801;SDS011;2927;49.366;8.530;2024-02-21T02:55:40;9.60;;;3.90;;
5801;SDS011;2927;49.366;8.530;2024-02-21T02:58:05;10.43;;;3.50;;
5801;SDS011;2927;49.366;8.530;2024-02-21T03:00:31;13.00;;;3.60;;
5801;SDS011;2927;49.366;8.530;2024-02-21T03:03:01;12.30;;;3.77;;
5801;SDS011;2927;49.366;8.530;2024-02-21T03:05:28;15.93;;;3.50;;
5801;SDS011;2927;49.366;8.530;2024-02-21T03:07:54;11.10;;;4.30;;
5801;SDS011;2927;49.366;8.530;2024-02-21T03:10:20;8.13;;;5.17;;
5801;SDS011;2927;49.366;8.530;2024-02-21T03:12:46;15.97;;;4.27;;
5801;SDS011;2927;49.366;8.530;2024-02-21T03:15:11;9.43;;;4.00;;
5801;SDS011;2927;49.366;8.530;2024-02-21T03:17:38;6.63;;;3.83;;
5801;SDS011;2927;49.366;8.530;2024-02-21T03:20:04;21.43;;;3.93;;
5801;SDS011;2927;49.366;8.530;2024-02-21T03:22:30;12.80;;;4.90;;
5801;SDS011;2927;49.366;8.530;2024-02-21T03:24:57;11.50;;;3.53;;
5801;SDS011;2927;49.366;8.530;2024-02-21T03:27:22;10.50;;;4.17;;
5801;SDS011;2927;49.366;8.530;2024-02-21T03:29:48;13.33;;;3.80;;
5801;SDS011;2927;49.366;8.530;2024-02-21T03:32:13;10.43;;;3.50;;
5801;SDS011;2927;49.366;8.530;2024-02-21T03:34:39;12.40;;;4.30;;
5801;SDS011;2927;49.366;8.530;2024-02-21T03:37:04;10.73;;;4.10;;
5801;SDS011;2927;49.366;8.530;2024-02-21T03:39:33;10.80;;;3.80;;
5801;SDS011;2927;49.366;8.530;2024-02-21T03:41:58;7.73;;;4.50;;
5801;SDS011;2927;49.366;8.530;2024-02-21T03:44:29;6.53;;;3.83;;
5801;SDS011;2927;49.366;8.530;2024-02-21T03:46:55;7.83;;;4.40;;
5801;SDS011;2927;49.366;8.530;2024-02-21T03:49:21;10.17;;;4.30;;
5801;SDS011;2927;49.366;8.530;2024-02-21T03:51:47;10.60;;;3.80;;
5801;SDS011;2927;49.366;8.530;2024-02-21T03:54:12;6.70;;;3.70;;
5801;SDS011;2927;49.366;8.530;2024-02-21T03:56:38;11.97;;;3.40;;
5801;SDS011;2927;49.366;8.530;2024-02-21T03:59:05;11.37;;;3.80;;
5801;SDS011;2927;49.366;8.530;2024-02-21T04:01:34;9.97;;;4.43;;
5801;SDS011;2927;49.366;8.530;2024-02-21T04:04:00;4.80;;;3.30;;
5801;SDS011;2927;49.366;8.530;2024-02-21T04:06:25;11.33;;;4.00;;
5801;SDS011;2927;49.366;8.530;2024-02-21T04:08:51;8.00;;;3.20;;
5801;SDS011;2927;49.366;8.530;2024-02-21T04:11:16;17.30;;;3.00;;
5801;SDS011;2927;49.366;8.530;2024-02-21T04:13:43;10.00;;;3.93;;
5801;SDS011;2927;49.366;8.530;2024-02-21T04:16:09;4.33;;;3.07;;
5801;SDS011;2927;49.366;8.530;2024-02-21T04:18:35;9.80;;;3.90;;
5801;SDS011;2927;49.366;8.530;2024-02-21T04:21:01;9.97;;;3.27;;
5801;SDS011;2927;49.366;8.530;2024-02-21T04:23:26;17.17;;;3.57;;
5801;SDS011;2927;49.366;8.530;2024-02-21T04:25:52;8.67;;;2.63;;
5801;SDS011;2927;49.366;8.530;2024-02-21T04:28:17;11.27;;;2.80;;
5801;SDS011;2927;49.366;8.530;2024-02-21T04:30:43;6.73;;;2.73;;
5801;SDS011;2927;49.366;8.530;2024-02-21T04:33:08;8.63;;;4.20;;
5801;SDS011;2927;49.366;8.530;2024-02-21T04:35:35;11.27;;;3.67;;
5801;SDS011;2927;49.366;8.530;2024-02-21T04:38:01;15.33;;;4.20;;
5801;SDS011;2927;49.366;8.530;2024-02-21T04:40:27;7.83;;;3.20;;
5801;SDS011;2927;49.366;8.530;2024-02-21T04:42:52;10.70;;;3.97;;
5801;SDS011;2927;49.366;8.530;2024-02-21T04:45:19;7.27;;;3.63;;
5801;SDS011;2927;49.366;8.530;2024-02-21T04:47:44;13.93;;;3.00;;
5801;SDS011;2927;49.366;8.530;2024-02-21T04:50:10;9.47;;;3.40;;
5801;SDS011;2927;49.366;8.530;2024-02-21T04:52:35;18.43;;;3.70;;
5801;SDS011;2927;49.366;8.530;2024-02-21T04:55:01;10.83;;;3.30;;
5801;SDS011;2927;49.366;8.530;2024-02-21T04:57:26;11.67;;;3.90;;
5801;SDS011;2927;49.366;8.530;2024-02-21T04:59:52;15.83;;;4.13;;
5801;SDS011;2927;49.366;8.530;2024-02-21T05:02:17;9.73;;;4.00;;
5801;SDS011;2927;49.366;8.530;2024-02-21T05:04:44;18.13;;;4.20;;
5801;SDS011;2927;49.366;8.530;2024-02-21T05:07:10;8.57;;;3.60;;
5801;SDS011;2927;49.366;8.530;2024-02-21T05:09:36;8.60;;;4.33;;
5801;SDS011;2927;49.366;8.530;2024-02-21T05:12:02;11.80;;;4.20;;
5801;SDS011;2927;49.366;8.530;2024-02-21T05:14:28;11.23;;;4.13;;
5801;SDS011;2927;49.366;8.530;2024-02-21T05:16:54;13.30;;;5.30;;
5801;SDS011;2927;49.366;8.530;2024-02-21T05:19:20;10.80;;;3.93;;
5801;SDS011;2927;49.366;8.530;2024-02-21T05:21:45;7.93;;;4.40;;
5801;SDS011;2927;49.366;8.530;2024-02-21T05:24:11;13.83;;;4.40;;
5801;SDS011;2927;49.366;8.530;2024-02-21T05:26:37;23.47;;;4.77;;
5801;SDS011;2927;49.366;8.530;2024-02-21T05:29:02;18.93;;;5.10;;
5801;SDS011;2927;49.366;8.530;2024-02-21T05:34:16;7.43;;;4.23;;
5801;SDS011;2927;49.366;8.530;2024-02-21T05:36:41;18.67;;;6.20;;
5801;SDS011;2927;49.366;8.530;2024-02-21T05:39:07;12.47;;;5.20;;
5801;SDS011;2927;49.366;8.530;2024-02-21T05:41:32;7.23;;;4.57;;
5801;SDS011;2927;49.366;8.530;2024-02-21T05:43:58;14.83;;;4.03;;
5801;SDS011;2927;49.366;8.530;2024-02-21T05:46:23;17.87;;;4.73;;
5801;SDS011;2927;49.366;8.530;2024-02-21T05:48:49;12.10;;;4.63;;
5801;SDS011;2927;49.366;8.530;2024-02-21T05:51:15;11.13;;;4.83;;
5801;SDS011;2927;49.366;8.530;2024-02-21T05:53:40;12.37;;;4.70;;
5801;SDS011;2927;49.366;8.530;2024-02-21T05:56:12;9.37;;;4.37;;
5801;SDS011;2927;49.366;8.530;2024-02-21T05:58:38;16.20;;;4.37;;
5801;SDS011;2927;49.366;8.530;2024-02-21T06:01:04;17.57;;;5.00;;
5801;SDS011;2927;49.366;8.530;2024-02-21T06:03:31;11.07;;;4.30;;
5801;SDS011;2927;49.366;8.530;2024-02-21T06:05:58;8.63;;;4.87;;
5801;SDS011;2927;49.366;8.530;2024-02-21T06:08:24;9.73;;;4.70;;
5801;SDS011;2927;49.366;8.530;2024-02-21T06:10:50;8.13;;;3.67;;
5801;SDS011;2927;49.366;8.530;2024-02-21T06:13:28;13.97;;;4.57;;
5801;SDS011;2927;49.366;8.530;2024-02-21T06:15:54;16.10;;;5.50;;
5801;SDS011;2927;49.366;8.530;2024-02-21T06:18:20;12.97;;;5.13;;
5801;SDS011;2927;49.366;8.530;2024-02-21T06:20:46;18.03;;;4.70;;
5801;SDS011;2927;49.366;8.530;2024-02-21T06:23:15;12.37;;;4.63;;
5801;SDS011;2927;49.366;8.530;2024-02-21T06:25:44;8.23;;;3.97;;
5801;SDS011;2927;49.366;8.530;2024-02-21T06:28:10;11.03;;;3.90;;
5801;SDS011;2927;49.366;8.530;2024-02-21T06:30:35;15.07;;;4.90;;
5801;SDS011;2927;49.366;8.530;2024-02-21T06:33:01;12.53;;;4.63;;
5801;SDS011;2927;49.366;8.530;2024-02-21T06:35:27;15.43;;;5.10;;
5801;SDS011;2927;49.366;8.530;2024-02-21T06:37:53;11.00;;;4.07;;
5801;SDS011;2927;49.366;8.530;2024-02-21T06:40:20;17.30;;;5.47;;
5801;SDS011;2927;49.366;8.530;2024-02-21T06:42:47;20.33;;;4.30;;
5801;SDS011;2927;49.366;8.530;2024-02-21T06:45:13;12.37;;;4.67;;
5801;SDS011;2927;49.366;8.530;2024-02-21T06:47:38;10.07;;;4.83;;
5801;SDS011;2927;49.366;8.530;2024-02-21T06:50:05;13.43;;;5.23;;
5801;SDS011;2927;49.366;8.530;2024-02-21T06:52:31;16.33;;;4.43;;
5801;SDS011;2927;49.366;8.530;2024-02-21T06:54:56;12.83;;;4.83;;
5801;SDS011;2927;49.366;8.530;2024-02-21T06:57:22;11.50;;;4.17;;
5801;SDS011;2927;49.366;8.530;2024-02-21T06:59:48;14.60;;;5.20;;
5801;SDS011;2927;49.366;8.530;2024-02-21T07:02:13;9.53;;;4.20;;
5801;SDS011;2927;49.366;8.530;2024-02-21T07:04:39;17.87;;;4.87;;
5801;SDS011;2927;49.366;8.530;2024-02-21T07:07:04;13.90;;;4.87;;
5801;SDS011;2927;49.366;8.530;2024-02-21T07:09:30;15.93;;;5.27;;
5801;SDS011;2927;49.366;8.530;2024-02-21T07:11:57;7.13;;;4.50;;
5801;SDS011;2927;49.366;8.530;2024-02-21T07:14:23;11.60;;;3.97;;
5801;SDS011;2927;49.366;8.530;2024-02-21T07:16:49;7.20;;;3.80;;
5801;SDS011;2927;49.366;8.530;2024-02-21T07:19:14;7.40;;;4.63;;
5801;SDS011;2927;49.366;8.530;2024-02-21T07:21:40;15.07;;;5.17;;
5801;SDS011;2927;49.366;8.530;2024-02-21T07:24:07;8.17;;;4.53;;
5801;SDS011;2927;49.366;8.530;2024-02-21T07:26:33;6.57;;;3.73;;
5801;SDS011;2927;49.366;8.530;2024-02-21T07:28:58;14.70;;;4.70;;
5801;SDS011;2927;49.366;8.530;2024-02-21T07:31:24;8.43;;;3.80;;
5801;SDS011;2927;49.366;8.530;2024-02-21T07:33:49;8.60;;;3.80;;
5801;SDS011;2927;49.366;8.530;2024-02-21T07:36:15;6.93;;;3.00;;
5801;SDS011;2927;49.366;8.530;2024-02-21T07:38:49;6.70;;;3.77;;
5801;SDS011;2927;49.366;8.530;2024-02-21T07:41:15;9.27;;;3.63;;
5801;SDS011;2927;49.366;8.530;2024-02-21T07:43:40;10.80;;;4.13;;
5801;SDS011;2927;49.366;8.530;2024-02-21T07:46:06;5.60;;;4.10;;
5801;SDS011;2927;49.366;8.530;2024-02-21T07:48:31;8.90;;;4.03;;
5801;SDS011;2927;49.366;8.530;2024-02-21T07:50:57;5.67;;;3.73;;
5801;SDS011;2927;49.366;8.530;2024-02-21T07:53:23;6.13;;;3.80;;
5801;SDS011;2927;49.366;8.530;2024-02-21T07:55:48;11.63;;;3.70;;
5801;SDS011;2927;49.366;8.530;2024-02-21T07:58:14;5.60;;;3.10;;
5801;SDS011;2927;49.366;8.530;2024-02-21T08:00:39;7.20;;;3.50;;
5801;SDS011;2927;49.366;8.530;2024-02-21T08:03:05;10.13;;;4.50;;
5801;SDS011;2927;49.366;8.530;2024-02-21T08:05:30;14.93;;;3.67;;
5801;SDS011;2927;49.366;8.530;2024-02-21T08:07:58;14.57;;;4.30;;
5801;SDS011;2927;49.366;8.530;2024-02-21T08:10:24;5.80;;;3.67;;
5801;SDS011;2927;49.366;8.530;2024-02-21T08:12:49;7.80;;;3.70;;
5801;SDS011;2927;49.366;8.530;2024-02-21T08:15:15;5.13;;;3.17;;
5801;SDS011;2927;49.366;8.530;2024-02-21T08:17:41;7.73;;;3.43;;
5801;SDS011;2927;49.366;8.530;2024-02-21T08:20:06;9.83;;;3.50;;
5801;SDS011;2927;49.366;8.530;2024-02-21T08:22:32;7.20;;;3.67;;
5801;SDS011;2927;49.366;8.530;2024-02-21T08:24:58;8.13;;;3.40;;
5801;SDS011;2927;49.366;8.530;2024-02-21T08:27:24;12.90;;;5.03;;
5801;SDS011;2927;49.366;8.530;2024-02-21T08:29:49;8.30;;;3.40;;
5801;SDS011;2927;49.366;8.530;2024-02-21T08:32:15;8.33;;;3.23;;
5801;SDS011;2927;49.366;8.530;2024-02-21T08:34:41;9.50;;;3.77;;
5801;SDS011;2927;49.366;8.530;2024-02-21T08:37:06;10.63;;;4.33;;
5801;SDS011;2927;49.366;8.530;2024-02-21T08:39:33;12.63;;;3.60;;
5801;SDS011;2927;49.366;8.530;2024-02-21T08:41:58;9.53;;;3.53;;
5801;SDS011;2927;49.366;8.530;2024-02-21T08:44:24;8.00;;;3.90;;
5801;SDS011;2927;49.366;8.530;2024-02-21T08:46:53;9.27;;;3.60;;
5801;SDS011;2927;49.366;8.530;2024-02-21T08:49:18;11.00;;;4.57;;
5801;SDS011;2927;49.366;8.530;2024-02-21T08:51:44;13.67;;;3.90;;
5801;SDS011;2927;49.366;8.530;2024-02-21T08:54:11;6.47;;;3.70;;
5801;SDS011;2927;49.366;8.530;2024-02-21T08:56:36;12.87;;;3.10;;
5801;SDS011;2927;49.366;8.530;2024-02-21T08:59:02;7.50;;;3.03;;
5801;SDS011;2927;49.366;8.530;2024-02-21T09:01:28;10.80;;;3.20;;
5801;SDS011;2927;49.366;8.530;2024-02-21T09:03:54;8.10;;;4.00;;
5801;SDS011;2927;49.366;8.530;2024-02-21T09:06:21;9.67;;;4.03;;
5801;SDS011;2927;49.366;8.530;2024-02-21T09:08:47;11.83;;;3.20;;
5801;SDS011;2927;49.366;8.530;2024-02-21T09:11:12;9.13;;;2.80;;
5801;SDS011;2927;49.366;8.530;2024-02-21T09:13:38;4.73;;;3.00;;
5801;SDS011;2927;49.366;8.530;2024-02-21T09:16:03;5.60;;;2.73;;
5801;SDS011;2927;49.366;8.530;2024-02-21T09:18:30;5.70;;;2.40;;
5801;SDS011;2927;49.366;8.530;2024-02-21T09:20:56;4.63;;;3.10;;
5801;SDS011;2927;49.366;8.530;2024-02-21T09:23:24;9.20;;;3.93;;
5801;SDS011;2927;49.366;8.530;2024-02-21T09:25:49;7.73;;;2.70;;
5801;SDS011;2927;49.366;8.530;2024-02-21T09:28:15;7.00;;;3.60;;
5801;SDS011;2927;49.366;8.530;2024-02-21T09:30:40;6.43;;;3.03;;
5801;SDS011;2927;49.366;8.530;2024-02-21T09:33:06;8.40;;;2.60;;
5801;SDS011;2927;49.366;8.530;2024-02-21T09:35:32;6.57;;;2.80;;
5801;SDS011;2927;49.366;8.530;2024-02-21T09:37:58;5.80;;;2.73;;
5801;SDS011;2927;49.366;8.530;2024-02-21T09:40:24;8.07;;;3.80;;
5801;SDS011;2927;49.366;8.530;2024-02-21T09:42:50;8.27;;;2.90;;
5801;SDS011;2927;49.366;8.530;2024-02-21T09:45:27;12.77;;;4.20;;
5801;SDS011;2927;49.366;8.530;2024-02-21T09:50:59;10.80;;;2.70;;
5801;SDS011;2927;49.366;8.530;2024-02-21T09:53:27;10.73;;;2.70;;
5801;SDS011;2927;49.366;8.530;2024-02-21T09:55:54;9.10;;;2.50;;
5801;SDS011;2927;49.366;8.530;2024-02-21T09:58:20;4.50;;;2.43;;
5801;SDS011;2927;49.366;8.530;2024-02-21T10:00:47;8.63;;;2.57;;
5801;SDS011;2927;49.366;8.530;2024-02-21T10:03:12;12.60;;;2.97;;
5801;SDS011;2927;49.366;8.530;2024-02-21T10:05:38;16.23;;;2.60;;
5801;SDS011;2927;49.366;8.530;2024-02-21T10:08:04;7.63;;;3.37;;
5801;SDS011;2927;49.366;8.530;2024-02-21T10:10:40;9.03;;;3.10;;
5801;SDS011;2927;49.366;8.530;2024-02-21T10:13:10;9.63;;;2.73;;
5801;SDS011;2927;49.366;8.530;2024-02-21T10:15:36;7.90;;;2.53;;
5801;SDS011;2927;49.366;8.530;2024-02-21T10:18:02;9.60;;;2.80;;
5801;SDS011;2927;49.366;8.530;2024-02-21T10:20:31;2.30;;;2.00;;
5801;SDS011;2927;49.366;8.530;2024-02-21T10:23:04;6.20;;;2.37;;
5801;SDS011;2927;49.366;8.530;2024-02-21T10:25:36;5.47;;;2.53;;
5801;SDS011;2927;49.366;8.530;2024-02-21T10:28:08;2.67;;;1.90;;
5801;SDS011;2927;49.366;8.530;2024-02-21T10:30:33;6.67;;;2.00;;
5801;SDS011;2927;49.366;8.530;2024-02-21T10:32:59;6.63;;;2.40;;
5801;SDS011;2927;49.366;8.530;2024-02-21T10:35:25;7.97;;;2.40;;
5801;SDS011;2927;49.366;8.530;2024-02-21T10:37:52;8.10;;;2.40;;
5801;SDS011;2927;49.366;8.530;2024-02-21T10:40:22;10.33;;;2.27;;
5801;SDS011;2927;49.366;8.530;2024-02-21T10:43:01;7.73;;;1.97;;
5801;SDS011;2927;49.366;8.530;2024-02-21T10:45:30;12.77;;;2.30;;
5801;SDS011;2927;49.366;8.530;2024-02-21T10:48:01;7.73;;;2.67;;
5801;SDS011;2927;49.366;8.530;2024-02-21T10:50:27;5.60;;;2.30;;
5801;SDS011;2927;49.366;8.530;2024-02-21T10:55:41;10.60;;;2.80;;
5801;SDS011;2927;49.366;8.530;2024-02-21T10:58:15;11.33;;;2.27;;
5801;SDS011;2927;49.366;8.530;2024-02-21T11:00:43;14.87;;;3.70;;
5801;SDS011;2927;49.366;8.530;2024-02-21T11:03:08;7.07;;;2.00;;
5801;SDS011;2927;49.366;8.530;2024-02-21T11:05:34;4.77;;;2.33;;
5801;SDS011;2927;49.366;8.530;2024-02-21T11:08:00;9.43;;;2.30;;
5801;SDS011;2927;49.366;8.530;2024-02-21T11:10:27;4.13;;;2.03;;
5801;SDS011;2927;49.366;8.530;2024-02-21T11:12:53;7.33;;;2.43;;
5801;SDS011;2927;49.366;8.530;2024-02-21T11:15:39;7.30;;;2.03;;
5801;SDS011;2927;49.366;8.530;2024-02-21T11:18:05;3.50;;;2.20;;
5801;SDS011;2927;49.366;8.530;2024-02-21T11:20:34;8.03;;;2.00;;
5801;SDS011;2927;49.366;8.530;2024-02-21T11:23:00;6.47;;;2.00;;
5801;SDS011;2927;49.366;8.530;2024-02-21T11:25:26;9.90;;;2.13;;
5801;SDS011;2927;49.366;8.530;2024-02-21T11:28:03;8.10;;;2.30;;
5801;SDS011;2927;49.366;8.530;2024-02-21T11:30:30;5.70;;;2.00;;
5801;SDS011;2927;49.366;8.530;2024-02-21T11:33:00;5.80;;;1.90;;
5801;SDS011;2927;49.366;8.530;2024-02-21T11:35:31;3.10;;;1.90;;
5801;SDS011;2927;49.366;8.530;2024-02-21T11:38:07;2.50;;;1.67;;
5801;SDS011;2927;49.366;8.530;2024-02-21T11:40:40;10.73;;;2.43;;
5801;SDS011;2927;49.366;8.530;2024-02-21T11:43:06;4.97;;;1.80;;
5801;SDS011;2927;49.366;8.530;2024-02-21T11:45:32;5.40;;;1.70;;
5801;SDS011;2927;49.366;8.530;2024-02-21T11:47:58;5.70;;;1.90;;
5801;SDS011;2927;49.366;8.530;2024-02-21T11:50:25;8.50;;;2.00;;
5801;SDS011;2927;49.366;8.530;2024-02-21T11:52:53;4.03;;;1.60;;
5801;SDS011;2927;49.366;8.530;2024-02-21T11:55:20;7.87;;;2.13;;
5801;SDS011;2927;49.366;8.530;2024-02-21T11:57:47;4.73;;;1.93;;
5801;SDS011;2927;49.366;8.530;2024-02-21T12:00:16;3.93;;;1.60;;
5801;SDS011;2927;49.366;8.530;2024-02-21T12:02:45;3.43;;;2.00;;
5801;SDS011;2927;49.366;8.530;2024-02-21T12:05:10;5.80;;;2.07;;
5801;SDS011;2927;49.366;8.530;2024-02-21T12:07:36;8.40;;;2.00;;
5801;SDS011;2927;49.366;8.530;2024-02-21T12:10:09;5.97;;;2.10;;
5801;SDS011;2927;49.366;8.530;2024-02-21T12:12:35;3.70;;;1.30;;
5801;SDS011;2927;49.366;8.530;2024-02-21T12:15:03;5.63;;;2.00;;
5801;SDS011;2927;49.366;8.530;2024-02-21T12:17:29;3.83;;;1.53;;
5801;SDS011;2927;49.366;8.530;2024-02-21T12:19:56;4.27;;;2.27;;
5801;SDS011;2927;49.366;8.530;2024-02-21T12:22:22;5.63;;;2.30;;
5801;SDS011;2927;49.366;8.530;2024-02-21T12:24:48;4.50;;;1.70;;
5801;SDS011;2927;49.366;8.530;2024-02-21T12:27:13;3.03;;;1.97;;
5801;SDS011;2927;49.366;8.530;2024-02-21T12:29:39;8.20;;;1.80;;
5801;SDS011;2927;49.366;8.530;2024-02-21T12:32:04;6.40;;;1.97;;
5801;SDS011;2927;49.366;8.530;2024-02-21T12:34:30;4.57;;;1.70;;
5801;SDS011;2927;49.366;8.530;2024-02-21T12:36:57;3.60;;;1.67;;
5801;SDS011;2927;49.366;8.530;2024-02-21T12:39:23;8.27;;;3.30;;
5801;SDS011;2927;49.366;8.530;2024-02-21T12:41:49;3.73;;;2.10;;
5801;SDS011;2927;49.366;8.530;2024-02-21T12:44:14;4.27;;;1.70;;
5801;SDS011;2927;49.366;8.530;2024-02-21T12:46:41;9.47;;;1.97;;
5801;SDS011;2927;49.366;8.530;2024-02-21T12:49:07;4.30;;;1.90;;
5801;SDS011;2927;49.366;8.530;2024-02-21T12:51:35;5.13;;;1.57;;
5801;SDS011;2927;49.366;8.530;2024-02-21T12:54:01;7.87;;;2.07;;
5801;SDS011;2927;49.366;8.530;2024-02-21T12:56:29;4.80;;;1.60;;
5801;SDS011;2927;49.366;8.530;2024-02-21T12:58:56;11.10;;;2.27;;
5801;SDS011;2927;49.366;8.530;2024-02-21T13:01:22;4.67;;;1.70;;
5801;SDS011;2927;49.366;8.530;2024-02-21T13:03:48;5.17;;;2.20;;
5801;SDS011;2927;49.366;8.530;2024-02-21T13:06:13;2.70;;;1.87;;
5801;SDS011;2927;49.366;8.530;2024-02-21T13:08:39;2.87;;;1.27;;
5801;SDS011;2927;49.366;8.530;2024-02-21T13:11:05;11.57;;;2.20;;
5801;SDS011;2927;49.366;8.530;2024-02-21T13:13:31;3.90;;;2.60;;
5801;SDS011;2927;49.366;8.530;2024-02-21T13:15:57;5.30;;;2.77;;
5801;SDS011;2927;49.366;8.530;2024-02-21T13:18:24;6.07;;;3.30;;
5801;SDS011;2927;49.366;8.530;2024-02-21T13:20:49;5.10;;;2.07;;
5801;SDS011;2927;49.366;8.530;2024-02-21T13:23:15;11.23;;;3.43;;
5801;SDS011;2927;49.366;8.530;2024-02-21T13:25:40;8.23;;;2.23;;
5801;SDS011;2927;49.366;8.530;2024-02-21T13:28:07;5.00;;;2.30;;
5801;SDS011;2927;49.366;8.530;2024-02-21T13:30:34;15.37;;;2.33;;
5801;SDS011;2927;49.366;8.530;2024-02-21T13:33:00;10.33;;;1.63;;
5801;SDS011;2927;49.366;8.530;2024-02-21T13:35:25;5.47;;;1.90;;
5801;SDS011;2927;49.366;8.530;2024-02-21T13:37:53;12.97;;;2.17;;
5801;SDS011;2927;49.366;8.530;2024-02-21T13:40:18;4.23;;;1.83;;
5801;SDS011;2927;49.366;8.530;2024-02-21T13:42:44;4.30;;;2.17;;
5801;SDS011;2927;49.366;8.530;2024-02-21T13:45:09;2.17;;;1.27;;
5801;SDS011;2927;49.366;8.530;2024-02-21T13:47:35;6.20;;;1.33;;
5801;SDS011;2927;49.366;8.530;2024-02-21T13:50:04;7.50;;;1.70;;
5801;SDS011;2927;49.366;8.530;2024-02-21T13:52:31;5.73;;;1.70;;
5801;SDS011;2927;49.366;8.530;2024-02-21T13:54:56;8.10;;;1.77;;
5801;SDS011;2927;49.366;8.530;2024-02-21T13:57:22;4.77;;;1.67;;
5801;SDS011;2927;49.366;8.530;2024-02-21T13:59:48;3.87;;;1.90;;
5801;SDS011;2927;49.366;8.530;2024-02-21T14:02:13;8.77;;;2.53;;
5801;SDS011;2927;49.366;8.530;2024-02-21T14:04:39;4.17;;;1.97;;
5801;SDS011;2927;49.366;8.530;2024-02-21T14:07:05;3.20;;;1.50;;
5801;SDS011;2927;49.366;8.530;2024-02-21T14:09:30;11.43;;;2.53;;
5801;SDS011;2927;49.366;8.530;2024-02-21T14:11:57;3.57;;;1.67;;
5801;SDS011;2927;49.366;8.530;2024-02-21T14:14:22;1.23;;;1.10;;
5801;SDS011;2927;49.366;8.530;2024-02-21T14:16:48;1.80;;;1.30;;
5801;SDS011;2927;49.366;8.530;2024-02-21T14:19:14;3.60;;;1.30;;
5801;SDS011;2927;49.366;8.530;2024-02-21T14:21:39;4.03;;;2.10;;
5801;SDS011;2927;49.366;8.530;2024-02-21T14:24:05;4.23;;;1.90;;
5801;SDS011;2927;49.366;8.530;2024-02-21T14:26:31;2.47;;;2.00;;
5801;SDS011;2927;49.366;8.530;2024-02-21T14:28:57;6.47;;;2.30;;
5801;SDS011;2927;49.366;8.530;2024-02-21T14:31:23;2.93;;;1.57;;
5801;SDS011;2927;49.366;8.530;2024-02-21T14:33:50;12.57;;;2.50;;
5801;SDS011;2927;49.366;8.530;2024-02-21T14:36:16;9.40;;;2.13;;
5801;SDS011;2927;49.366;8.530;2024-02-21T14:38:41;5.77;;;1.50;;
5801;SDS011;2927;49.366;8.530;2024-02-21T14:41:08;8.73;;;2.27;;
5801;SDS011;2927;49.366;8.530;2024-02-21T14:43:33;4.30;;;2.43;;
5801;SDS011;2927;49.366;8.530;2024-02-21T14:46:00;5.50;;;1.37;;
5801;SDS011;2927;49.366;8.530;2024-02-21T14:48:29;6.30;;;1.57;;
5801;SDS011;2927;49.366;8.530;2024-02-21T14:50:55;8.60;;;1.77;;
5801;SDS011;2927;49.366;8.530;2024-02-21T14:53:20;6.83;;;1.47;;
5801;SDS011;2927;49.366;8.530;2024-02-21T14:55:46;3.30;;;1.60;;
5801;SDS011;2927;49.366;8.530;2024-02-21T14:58:11;8.90;;;1.57;;
5801;SDS011;2927;49.366;8.530;2024-02-21T15:00:37;9.63;;;2.03;;
5801;SDS011;2927;49.366;8.530;2024-02-21T15:03:03;3.00;;;1.40;;
5801;SDS011;2927;49.366;8.530;2024-02-21T15:05:29;4.57;;;1.40;;
5801;SDS011;2927;49.366;8.530;2024-02-21T15:07:55;9.10;;;1.63;;
5801;SDS011;2927;49.366;8.530;2024-02-21T15:10:24;4.83;;;1.93;;
5801;SDS011;2927;49.366;8.530;2024-02-21T15:12:49;4.00;;;1.43;;